Time;durP1;ratioP1;P1;durP2;ratioP2;P2;SDS_P1;SDS_P2;PMS_P1;PMS_P2;Temp;Humidity;BMP_temperature;BMP_pressure;BME280_temperature;BME280_humidity;BME280_pressure;Samples;Min_cycle;Max_cycle;Signal;HPM_P1;HPM_P2
2019/09/05 00:02:03;;;;;;;4.6;4.1;;;;;;;17.22;72.31348;959.139;;;;
2019/09/05 00:06:53;;;;;;;6.8;4.6;;;;;;;17.09;72.61914;959.1796;;;;
2019/09/05 00:09:18;;;;;;;5.9;4.6;;;;;;;17.07;72.62793;959.1581;;;;
2019/09/05 00:11:44;;;;;;;7.3;5.3;;;;;;;16.87;73.46973;959.1622;;;;
2019/09/05 00:14:09;;;;;;;6.6;5.1;;;;;;;16.77;72.87012;959.1635;;;;
2019/09/05 00:16:35;;;;;;;7.4;5.6;;;;;;;16.58;74.45996;959.1586;;;;
2019/09/05 00:19:00;;;;;;;5.5;5;;;;;;;16.7;74.70313;959.1002;;;;
2019/09/05 00:21:25;;;;;;;5.4;4.9;;;;;;;16.66;74.35742;959.0997;;;;
2019/09/05 00:23:50;;;;;;;6.2;5.4;;;;;;;16.63;73.5127;959.0793;;;;
2019/09/05 00:26:15;;;;;;;6.1;5;;;;;;;16.71;73.23438;959.0309;;;;
2019/09/05 00:28:41;;;;;;;6;5.4;;;;;;;16.61;73.57813;959.063;;;;
2019/09/05 00:31:06;;;;;;;7.7;5.5;;;;;;;16.59;74.19336;959.1057;;;;
2019/09/05 00:33:32;;;;;;;5.9;5.3;;;;;;;16.67;73.4834;959.1259;;;;
2019/09/05 00:35:57;;;;;;;5.7;5.1;;;;;;;16.62;73.24219;959.1589;;;;
2019/09/05 00:38:22;;;;;;;6.9;5.4;;;;;;;16.47;73.62402;959.1895;;;;
2019/09/05 00:43:12;;;;;;;5.8;5.2;;;;;;;16.43;73.5957;959.2554;;;;
2019/09/05 00:45:38;;;;;;;6.6;5.4;;;;;;;16.5;74.91309;959.1998;;;;
2019/09/05 00:48:03;;;;;;;6.8;5;;;;;;;16.57;73.39746;959.197;;;;
2019/09/05 00:50:28;;;;;;;6;5.2;;;;;;;16.62;73.21777;959.1649;;;;
2019/09/05 00:52:53;;;;;;;7;5.2;;;;;;;16.59;72.6416;959.1526;;;;
2019/09/05 00:55:18;;;;;;;6.4;5.4;;;;;;;16.56;72.91602;959.1289;;;;
2019/09/05 00:59:23;;;;;;;6.3;5.1;;;;;;;16.49;73.15039;959.21;;;;
2019/09/05 01:01:48;;;;;;;5.3;4.8;;;;;;;16.45;72.96777;959.2766;;;;
2019/09/05 01:04:13;;;;;;;5.4;4.8;;;;;;;16.64;72.58008;959.2092;;;;
2019/09/05 01:06:42;;;;;;;6.5;5.3;;;;;;;16.5;72.71973;959.1678;;;;
2019/09/05 01:09:04;;;;;;;5.6;5.1;;;;;;;16.35;73.18457;959.2689;;;;
2019/09/05 01:11:29;;;;;;;5.7;4.4;;;;;;;16.64;72.32324;959.2075;;;;
2019/09/05 01:13:54;;;;;;;5.4;4.8;;;;;;;16.52;73.30664;959.1367;;;;
2019/09/05 01:16:19;;;;;;;5.3;4.7;;;;;;;16.28;74.67871;959.2182;;;;
2019/09/05 01:18:44;;;;;;;5;4.2;;;;;;;16.3;74.63477;959.15;;;;
2019/09/05 01:21:10;;;;;;;5.5;4.3;;;;;;;16.29;74.49219;959.2099;;;;
2019/09/05 01:23:35;;;;;;;5.7;4.5;;;;;;;16.27;74.65234;959.2338;;;;
2019/09/05 01:26:00;;;;;;;6.8;3.9;;;;;;;16.16;75.19336;959.2622;;;;
2019/09/05 01:28:25;;;;;;;4.7;3.7;;;;;;;16.28;74.0957;959.2182;;;;
2019/09/05 01:30:50;;;;;;;4.9;3.6;;;;;;;16.41;72.75195;959.2645;;;;
2019/09/05 01:33:15;;;;;;;4.3;3.9;;;;;;;16.32;73.59961;959.2452;;;;
2019/09/05 01:35:40;;;;;;;6.1;4;;;;;;;16.4;73.28711;959.2868;;;;
2019/09/05 01:38:05;;;;;;;5.5;3.8;;;;;;;16.34;73.42773;959.2542;;;;
2019/09/05 01:40:31;;;;;;;4.8;4.3;;;;;;;16.26;75.00195;959.2675;;;;
2019/09/05 01:42:56;;;;;;;5.3;4.7;;;;;;;16.24;75.0791;959.2166;;;;
2019/09/05 01:45:21;;;;;;;7;5.2;;;;;;;16.24;75.3125;959.2305;;;;
2019/09/05 01:47:46;;;;;;;7.2;5.3;;;;;;;15.94;76.32031;959.2355;;;;
2019/09/05 01:50:12;;;;;;;6;5.4;;;;;;;15.88;77.08008;959.2545;;;;
2019/09/05 01:52:37;;;;;;;5.9;5.3;;;;;;;15.92;77.16797;959.2022;;;;
2019/09/05 01:55:02;;;;;;;7.1;5.3;;;;;;;15.91;77.0625;959.1882;;;;
2019/09/05 01:57:27;;;;;;;6.8;5.4;;;;;;;15.89;77.21973;959.2104;;;;
2019/09/05 01:59:52;;;;;;;7.2;5.9;;;;;;;15.84;77.55078;959.2227;;;;
2019/09/05 02:02:17;;;;;;;8.3;6.2;;;;;;;15.92;77.44824;959.2127;;;;
2019/09/05 02:04:42;;;;;;;7.1;6.4;;;;;;;15.68;77.62695;959.1984;;;;
2019/09/05 02:07:07;;;;;;;7;6.3;;;;;;;15.65;78.33105;959.218;;;;
2019/09/05 02:09:32;;;;;;;7.2;6.2;;;;;;;15.62;78.12695;959.1769;;;;
2019/09/05 02:11:57;;;;;;;7.5;6.8;;;;;;;15.53;78.57813;959.204;;;;
2019/09/05 02:14:22;;;;;;;6.8;6.1;;;;;;;15.57;77.88574;959.1719;;;;
2019/09/05 02:16:47;;;;;;;5.8;5.2;;;;;;;15.74;76.98438;959.1795;;;;
2019/09/05 02:19:13;;;;;;;6.1;5.5;;;;;;;15.68;77.79004;959.1713;;;;
2019/09/05 02:21:38;;;;;;;6.2;4.9;;;;;;;15.77;75.89453;959.154;;;;
2019/09/05 02:24:03;;;;;;;6;4.6;;;;;;;15.78;74.56836;959.2253;;;;
2019/09/05 02:26:28;;;;;;;5.2;4.6;;;;;;;15.81;74.30762;959.2367;;;;
2019/09/05 02:28:53;;;;;;;5.6;4.3;;;;;;;15.94;74.17773;959.2128;;;;
2019/09/05 02:31:18;;;;;;;4.7;4.2;;;;;;;16.01;73.65234;959.2258;;;;
2019/09/05 02:33:43;;;;;;;5;4.5;;;;;;;16.02;73.89844;959.2495;;;;
2019/09/05 02:36:08;;;;;;;4.8;4.3;;;;;;;15.91;73.85742;959.2742;;;;
2019/09/05 02:38:33;;;;;;;7.1;4.5;;;;;;;15.92;73.89355;959.2564;;;;
2019/09/05 02:40:58;;;;;;;5.6;4.2;;;;;;;15.96;73.87793;959.2881;;;;
2019/09/05 02:43:24;;;;;;;6.1;4.2;;;;;;;16.05;73.47168;959.2683;;;;
2019/09/05 02:45:49;;;;;;;5.3;3.9;;;;;;;15.96;73.37695;959.2651;;;;
2019/09/05 02:48:14;;;;;;;4.7;4.2;;;;;;;15.96;73.43359;959.2891;;;;
2019/09/05 02:50:40;;;;;;;6.6;4.3;;;;;;;15.99;73.61426;959.312;;;;
2019/09/05 02:53:05;;;;;;;5.6;3.9;;;;;;;16.05;73.48633;959.2772;;;;
2019/09/05 02:55:30;;;;;;;4.7;4.1;;;;;;;16.1;73.14453;959.3224;;;;
2019/09/05 02:57:55;;;;;;;6.3;4.2;;;;;;;16.15;72.90527;959.3246;;;;
2019/09/05 03:00:21;;;;;;;4.7;4.2;;;;;;;16.19;72.37695;959.2885;;;;
2019/09/05 03:02:46;;;;;;;6;4.3;;;;;;;16.12;72.63281;959.379;;;;
2019/09/05 03:05:12;;;;;;;5.2;4.2;;;;;;;15.99;72.78711;959.3063;;;;
2019/09/05 03:07:37;;;;;;;5.7;4.6;;;;;;;15.97;73.22852;959.3969;;;;
2019/09/05 03:10:03;;;;;;;4.8;4.3;;;;;;;16.01;72.90625;959.372;;;;
2019/09/05 03:12:28;;;;;;;6.1;4.3;;;;;;;15.92;72.74023;959.4067;;;;
2019/09/05 03:14:54;;;;;;;4.8;4.1;;;;;;;15.99;72.76367;959.3992;;;;
2019/09/05 03:17:19;;;;;;;4.9;4.4;;;;;;;16.12;71.95801;959.4595;;;;
2019/09/05 03:19:44;;;;;;;5.5;4.1;;;;;;;16.07;72.03125;959.4171;;;;
2019/09/05 03:22:10;;;;;;;5.5;3.8;;;;;;;16.02;72.16211;959.4813;;;;
2019/09/05 03:24:35;;;;;;;5.5;3.9;;;;;;;15.99;72.47168;959.4615;;;;
2019/09/05 03:27:00;;;;;;;4.9;4;;;;;;;15.96;72.28125;959.4509;;;;
2019/09/05 03:29:26;;;;;;;5.6;3.7;;;;;;;16.04;72.01367;959.4575;;;;
2019/09/05 03:31:51;;;;;;;5.3;3.9;;;;;;;15.96;72.23438;959.4903;;;;
2019/09/05 03:34:16;;;;;;;4.4;3.5;;;;;;;15.93;72.56836;959.4149;;;;
2019/09/05 03:36:41;;;;;;;5.3;3.8;;;;;;;16.1;71.33789;959.4039;;;;
2019/09/05 03:39:07;;;;;;;5.3;3.5;;;;;;;15.86;71.54102;959.4512;;;;
2019/09/05 03:41:32;;;;;;;5.2;3.6;;;;;;;15.94;71.35645;959.4623;;;;
2019/09/05 03:43:57;;;;;;;6.3;3.9;;;;;;;15.93;71.30859;959.5424;;;;
2019/09/05 03:46:23;;;;;;;5.5;3.4;;;;;;;15.93;70.94824;959.5742;;;;
2019/09/05 03:48:48;;;;;;;5.7;3.3;;;;;;;16.02;70.64648;959.5964;;;;
2019/09/05 03:51:14;;;;;;;4.7;3.5;;;;;;;15.98;70.6416;959.5595;;;;
2019/09/05 03:53:39;;;;;;;7.7;3.4;;;;;;;15.86;71.03027;959.5259;;;;
2019/09/05 03:56:05;;;;;;;5.8;3.2;;;;;;;15.92;70.7373;959.5934;;;;
2019/09/05 03:58:30;;;;;;;4.6;3;;;;;;;15.97;70.12695;959.6046;;;;
2019/09/05 04:02:28;;;;;;;5.2;3.2;;;;;;;15.81;70.42773;959.6181;;;;
2019/09/05 04:04:53;;;;;;;4.6;2.9;;;;;;;15.8;71.00781;959.6312;;;;
2019/09/05 04:07:18;;;;;;;6.2;3.2;;;;;;;15.88;70.19238;959.682;;;;
2019/09/05 04:09:43;;;;;;;5.3;3;;;;;;;15.64;70.70313;959.6713;;;;
2019/09/05 04:12:08;;;;;;;5.9;2.9;;;;;;;15.78;70.90039;959.7159;;;;
2019/09/05 04:14:33;;;;;;;5.2;3.1;;;;;;;15.81;70.37891;959.7109;;;;
2019/09/05 04:16:58;;;;;;;4.2;3.1;;;;;;;15.66;70.86816;959.7724;;;;
2019/09/05 04:19:23;;;;;;;6;3.1;;;;;;;15.6;71.25586;959.7625;;;;
2019/09/05 04:21:48;;;;;;;5.8;3.5;;;;;;;15.64;71.14551;959.7364;;;;
2019/09/05 04:24:13;;;;;;;5.5;3.2;;;;;;;15.57;71.28516;959.7831;;;;
2019/09/05 04:26:38;;;;;;;4.5;3.4;;;;;;;15.68;70.91797;959.8106;;;;
2019/09/05 04:29:04;;;;;;;5.8;3.2;;;;;;;15.73;70.81055;959.8325;;;;
2019/09/05 04:31:29;;;;;;;5.5;3.1;;;;;;;15.52;71.28809;959.8273;;;;
2019/09/05 04:33:54;;;;;;;5.8;3.5;;;;;;;15.57;71.37793;959.8134;;;;
2019/09/05 04:36:19;;;;;;;5;3.1;;;;;;;15.54;71.29199;959.7971;;;;
2019/09/05 04:38:44;;;;;;;6.1;3.6;;;;;;;15.52;71.42773;959.8059;;;;
2019/09/05 04:41:09;;;;;;;5.7;3.3;;;;;;;15.49;71.35352;959.8766;;;;
2019/09/05 04:43:34;;;;;;;4.7;3;;;;;;;15.63;70.91113;959.8447;;;;
2019/09/05 04:45:59;;;;;;;6.5;3.3;;;;;;;15.61;71.14063;959.8503;;;;
2019/09/05 04:48:24;;;;;;;7.4;3.4;;;;;;;15.51;71.4502;959.9079;;;;
2019/09/05 04:50:49;;;;;;;8.1;3.8;;;;;;;15.66;70.91504;959.9515;;;;
2019/09/05 04:53:14;;;;;;;9.6;3.5;;;;;;;15.52;71.19434;960.0081;;;;
2019/09/05 04:55:40;;;;;;;7.1;3.5;;;;;;;15.53;71.58203;960.0986;;;;
2019/09/05 04:58:05;;;;;;;8.2;3.5;;;;;;;15.56;71.72559;960.0929;;;;
2019/09/05 05:00:30;;;;;;;6.3;3.5;;;;;;;15.54;71.80469;960.1157;;;;
2019/09/05 05:02:55;;;;;;;6.2;3.4;;;;;;;15.55;71.77051;960.1567;;;;
2019/09/05 05:05:21;;;;;;;6.2;3.5;;;;;;;15.64;72.1582;960.2151;;;;
2019/09/05 05:07:46;;;;;;;5.9;3.3;;;;;;;15.59;71.45117;960.1833;;;;
2019/09/05 05:10:11;;;;;;;6.9;3.6;;;;;;;15.61;71.60547;960.225;;;;
2019/09/05 05:12:36;;;;;;;6.4;3.5;;;;;;;15.56;72.08789;960.2399;;;;
2019/09/05 05:15:02;;;;;;;4.8;3;;;;;;;15.61;72.08398;960.1912;;;;
2019/09/05 05:17:27;;;;;;;6.3;3.3;;;;;;;15.45;72.86035;960.179;;;;
2019/09/05 05:19:52;;;;;;;6.8;3.7;;;;;;;15.29;73.01953;960.1846;;;;
2019/09/05 05:22:18;;;;;;;5.9;3.4;;;;;;;15.44;72.81055;960.1914;;;;
2019/09/05 05:24:43;;;;;;;6.5;3.5;;;;;;;15.41;72.70117;960.1995;;;;
2019/09/05 05:27:08;;;;;;;5.6;3.2;;;;;;;15.55;72.53906;960.2455;;;;
2019/09/05 05:29:33;;;;;;;4.6;3.5;;;;;;;15.61;72.25879;960.2472;;;;
2019/09/05 05:31:59;;;;;;;6;3.5;;;;;;;15.61;72.00098;960.312;;;;
2019/09/05 05:34:24;;;;;;;5.4;3.8;;;;;;;15.68;72.33887;960.3265;;;;
2019/09/05 05:36:50;;;;;;;6.4;3.4;;;;;;;15.68;72.11914;960.2978;;;;
2019/09/05 05:39:15;;;;;;;6.1;3.3;;;;;;;15.71;72.27344;960.3102;;;;
2019/09/05 05:41:40;;;;;;;5.7;3.3;;;;;;;15.72;71.77539;960.3429;;;;
2019/09/05 05:44:06;;;;;;;5.4;3.2;;;;;;;15.69;72.02734;960.3527;;;;
2019/09/05 05:46:31;;;;;;;6.5;3.2;;;;;;;15.69;72.08398;960.3972;;;;
2019/09/05 05:48:56;;;;;;;7;3.7;;;;;;;15.64;71.95996;960.4467;;;;
2019/09/05 05:51:22;;;;;;;5;3.2;;;;;;;15.84;71.81934;960.4227;;;;
2019/09/05 05:53:47;;;;;;;7.6;3.6;;;;;;;15.89;71.09277;960.4448;;;;
2019/09/05 05:56:12;;;;;;;8.6;3.5;;;;;;;15.72;72.03125;960.5245;;;;
2019/09/05 05:58:38;;;;;;;5.3;3.3;;;;;;;16.12;71.14258;960.5678;;;;
2019/09/05 06:01:03;;;;;;;6.2;3.5;;;;;;;16.09;71.20605;960.595;;;;
2019/09/05 06:03:28;;;;;;;7.1;3.8;;;;;;;15.81;71.46387;960.5656;;;;
2019/09/05 06:05:54;;;;;;;6.2;3.5;;;;;;;15.96;71.41895;960.6166;;;;
2019/09/05 06:08:19;;;;;;;7;3.6;;;;;;;15.88;71.46289;960.6058;;;;
2019/09/05 06:10:44;;;;;;;6.8;3.4;;;;;;;16;71.46094;960.6501;;;;
2019/09/05 06:13:09;;;;;;;5;3.6;;;;;;;16.23;70.4248;960.655;;;;
2019/09/05 06:15:34;;;;;;;6.5;3.3;;;;;;;16.13;70.80566;960.6559;;;;
2019/09/05 06:18:00;;;;;;;5.3;3.3;;;;;;;16.13;71.27148;960.6527;;;;
2019/09/05 06:20:25;;;;;;;5.5;3.3;;;;;;;16.24;70.74121;960.6831;;;;
2019/09/05 06:22:50;;;;;;;10.6;3.4;;;;;;;16.26;71.14063;960.6691;;;;
2019/09/05 06:25:16;;;;;;;7;3.3;;;;;;;16.17;70.96484;960.7726;;;;
2019/09/05 06:27:41;;;;;;;4.9;3.6;;;;;;;16.26;70.83789;960.78;;;;
2019/09/05 06:30:06;;;;;;;4.8;3.1;;;;;;;16.39;71.89746;960.7855;;;;
2019/09/05 06:32:31;;;;;;;4.9;3.1;;;;;;;16.48;70.43066;960.8061;;;;
2019/09/05 06:34:56;;;;;;;5.5;3.4;;;;;;;16.39;70.51074;960.8499;;;;
2019/09/05 06:37:22;;;;;;;7.3;3.3;;;;;;;16.55;70.52344;960.8536;;;;
2019/09/05 06:39:47;;;;;;;5.1;3.2;;;;;;;16.63;69.92871;960.9191;;;;
2019/09/05 06:42:12;;;;;;;5.6;2.9;;;;;;;16.64;69.42773;960.897;;;;
2019/09/05 06:44:37;;;;;;;6.6;3.2;;;;;;;16.76;69.2373;960.9554;;;;
2019/09/05 06:47:02;;;;;;;5.1;2.8;;;;;;;16.86;69.03125;960.9509;;;;
2019/09/05 06:49:27;;;;;;;5.4;2.7;;;;;;;16.87;69.25488;961.0491;;;;
2019/09/05 06:51:52;;;;;;;4.3;2.8;;;;;;;16.81;69.41992;961.0539;;;;
2019/09/05 06:54:17;;;;;;;7.1;2.8;;;;;;;16.92;69.06445;961.1072;;;;
2019/09/05 06:56:42;;;;;;;4.3;2.7;;;;;;;16.96;69.36328;961.1336;;;;
2019/09/05 06:59:08;;;;;;;4.7;2.7;;;;;;;17;69.14551;961.1367;;;;
2019/09/05 07:01:33;;;;;;;4.4;2.8;;;;;;;17.07;68.72461;961.147;;;;
2019/09/05 07:03:59;;;;;;;5.5;2.8;;;;;;;17.14;68.43262;961.1755;;;;
2019/09/05 07:06:24;;;;;;;4.7;3;;;;;;;17.13;68.66504;961.1955;;;;
2019/09/05 07:08:49;;;;;;;8.5;3.2;;;;;;;16.99;69.16895;961.2122;;;;
2019/09/05 07:11:14;;;;;;;5.6;2.6;;;;;;;17.05;69.28418;961.2864;;;;
2019/09/05 07:13:39;;;;;;;4.7;2.8;;;;;;;17.21;68.79395;961.2594;;;;
2019/09/05 07:16:05;;;;;;;7.2;3;;;;;;;17.25;69.91016;961.2946;;;;
2019/09/05 07:18:30;;;;;;;5.6;2.8;;;;;;;17.26;68.7207;961.265;;;;
2019/09/05 07:20:56;;;;;;;5.2;2.7;;;;;;;17.33;69.32813;961.3223;;;;
2019/09/05 07:23:21;;;;;;;4.5;2.5;;;;;;;17.37;68.86621;961.3236;;;;
2019/09/05 07:25:47;;;;;;;5.6;2.6;;;;;;;17.18;69.86523;961.3699;;;;
2019/09/05 07:28:12;;;;;;;4.4;2.4;;;;;;;17.29;69.77832;961.3794;;;;
2019/09/05 07:30:37;;;;;;;4.3;2.8;;;;;;;17.32;69.5127;961.3628;;;;
2019/09/05 07:33:03;;;;;;;4.9;2.7;;;;;;;17.42;69.29395;961.3994;;;;
2019/09/05 07:35:28;;;;;;;7.1;2.7;;;;;;;17.38;69.20703;961.4183;;;;
2019/09/05 07:37:53;;;;;;;5.9;2.8;;;;;;;17.44;69.12305;961.3323;;;;
2019/09/05 07:40:19;;;;;;;7.1;2.9;;;;;;;17.49;69.51758;961.4129;;;;
2019/09/05 07:42:44;;;;;;;7.8;3.2;;;;;;;17.61;69.25488;961.399;;;;
2019/09/05 07:45:10;;;;;;;6.8;3;;;;;;;17.61;69.60449;961.4041;;;;
2019/09/05 07:47:35;;;;;;;6.3;3.1;;;;;;;17.76;69.24414;961.4311;;;;
2019/09/05 07:50:01;;;;;;;5.1;2.6;;;;;;;17.83;69.23145;961.4048;;;;
2019/09/05 07:52:26;;;;;;;4.4;2.8;;;;;;;17.9;69.40527;961.4019;;;;
2019/09/05 07:54:51;;;;;;;4.4;2.4;;;;;;;17.96;68.37305;961.38;;;;
2019/09/05 07:57:17;;;;;;;5.4;2.4;;;;;;;17.8;68.38477;961.415;;;;
2019/09/05 07:59:42;;;;;;;7.9;2.7;;;;;;;17.94;68.06543;961.3412;;;;
2019/09/05 08:02:07;;;;;;;5.8;2.6;;;;;;;17.91;68.08594;961.3538;;;;
2019/09/05 08:04:33;;;;;;;5.8;2.8;;;;;;;17.92;68.04004;961.3251;;;;
2019/09/05 08:06:58;;;;;;;11.5;3.3;;;;;;;17.72;68.26563;961.4011;;;;
2019/09/05 08:09:24;;;;;;;7.7;3.1;;;;;;;17.84;68.34277;961.3421;;;;
2019/09/05 08:11:49;;;;;;;7.5;3.2;;;;;;;18.01;67.85547;961.3102;;;;
2019/09/05 08:14:14;;;;;;;6.9;3.4;;;;;;;17.99;68.79883;961.3353;;;;
2019/09/05 08:16:40;;;;;;;6.3;2.9;;;;;;;18.13;68.01367;961.4341;;;;
2019/09/05 08:19:05;;;;;;;6.6;3;;;;;;;18.21;68.1416;961.4161;;;;
2019/09/05 08:21:30;;;;;;;6.1;3.3;;;;;;;18.29;67.69922;961.4682;;;;
2019/09/05 08:23:56;;;;;;;8.5;3.6;;;;;;;18.12;69.25391;961.4611;;;;
2019/09/05 08:26:21;;;;;;;6.5;4.2;;;;;;;17.97;68.92676;961.4433;;;;
2019/09/05 08:28:47;;;;;;;7.4;4.2;;;;;;;18.03;68.47852;961.532;;;;
2019/09/05 08:31:12;;;;;;;7.6;4.3;;;;;;;17.86;68.93066;961.5413;;;;
2019/09/05 08:33:38;;;;;;;7.1;4.1;;;;;;;17.91;69.36133;961.6044;;;;
2019/09/05 08:36:03;;;;;;;7.9;3.8;;;;;;;18.03;68.75977;961.6319;;;;
2019/09/05 08:38:29;;;;;;;8.3;4.1;;;;;;;18.04;68.3623;961.7293;;;;
2019/09/05 08:40:54;;;;;;;10.1;3.9;;;;;;;17.87;68.59375;961.7748;;;;
2019/09/05 08:43:19;;;;;;;8.1;3.7;;;;;;;17.75;68.69141;961.8148;;;;
2019/09/05 08:45:44;;;;;;;6.8;3.2;;;;;;;17.75;68.66895;961.9127;;;;
2019/09/05 08:48:09;;;;;;;6.4;3.2;;;;;;;17.76;68.87988;961.9111;;;;
2019/09/05 08:50:35;;;;;;;6.9;3.2;;;;;;;17.75;68.80957;961.9005;;;;
2019/09/05 08:53:00;;;;;;;5.3;3.1;;;;;;;17.91;68.41309;961.9211;;;;
2019/09/05 08:55:25;;;;;;;8;3.3;;;;;;;17.78;68.58008;962.0317;;;;
2019/09/05 08:57:51;;;;;;;10.4;3.4;;;;;;;17.66;68.65332;962.0411;;;;
2019/09/05 09:00:16;;;;;;;8.8;3.2;;;;;;;17.54;68.84766;962.0457;;;;
2019/09/05 09:02:41;;;;;;;6.3;3.1;;;;;;;17.72;68.78223;962.0852;;;;
2019/09/05 09:05:07;;;;;;;8.5;3.6;;;;;;;17.56;69.90234;962.1916;;;;
2019/09/05 09:07:32;;;;;;;9;3.3;;;;;;;17.62;70.11035;962.215;;;;
2019/09/05 09:09:58;;;;;;;6;3.1;;;;;;;17.61;69.54688;962.2794;;;;
2019/09/05 09:12:23;;;;;;;7;3.6;;;;;;;17.37;69.74316;962.3494;;;;
2019/09/05 09:14:49;;;;;;;7.5;3.2;;;;;;;17.32;70.27246;962.264;;;;
2019/09/05 09:17:14;;;;;;;4.9;2.8;;;;;;;17.48;69.66797;962.3187;;;;
2019/09/05 09:19:40;;;;;;;5.4;3.2;;;;;;;17.54;69.51367;962.3176;;;;
2019/09/05 09:22:05;;;;;;;5.3;3.2;;;;;;;17.46;69.81738;962.2807;;;;
2019/09/05 09:24:30;;;;;;;7.6;3.5;;;;;;;17.45;69.89551;962.2339;;;;
2019/09/05 09:26:55;;;;;;;7.2;3.2;;;;;;;17.43;70.11523;962.2075;;;;
2019/09/05 09:29:20;;;;;;;6.2;3.5;;;;;;;17.33;70.66016;962.1733;;;;
2019/09/05 09:31:46;;;;;;;6.5;3.5;;;;;;;17.33;70.46191;962.2417;;;;
2019/09/05 09:34:11;;;;;;;5.9;3.4;;;;;;;17.45;70.18848;962.2999;;;;
2019/09/05 09:36:36;;;;;;;8.6;3.7;;;;;;;17.42;70.55859;962.2891;;;;
2019/09/05 09:39:01;;;;;;;6.5;3.6;;;;;;;17.42;70.26465;962.3181;;;;
2019/09/05 09:41:27;;;;;;;7.7;3.6;;;;;;;17.36;70.96875;962.3653;;;;
2019/09/05 09:43:52;;;;;;;8.3;3.7;;;;;;;17.29;70.94531;962.3381;;;;
2019/09/05 09:46:18;;;;;;;5.3;3.4;;;;;;;17.43;70.59473;962.3542;;;;
2019/09/05 09:48:43;;;;;;;7.2;3.8;;;;;;;17.38;70.84473;962.39;;;;
2019/09/05 09:51:08;;;;;;;9.5;3.8;;;;;;;17.39;70.78613;962.3503;;;;
2019/09/05 09:53:33;;;;;;;7.9;3.6;;;;;;;17.32;71.33691;962.2789;;;;
2019/09/05 09:55:58;;;;;;;7.5;4;;;;;;;17.48;70.4502;962.3525;;;;
2019/09/05 09:58:24;;;;;;;6.2;3.9;;;;;;;17.37;71.01758;962.3683;;;;
2019/09/05 10:00:49;;;;;;;8.8;4.3;;;;;;;17.19;71.53711;962.3541;;;;
2019/09/05 10:03:15;;;;;;;7.3;4.1;;;;;;;17.22;71.70703;962.4132;;;;
2019/09/05 10:05:40;;;;;;;6.6;3.9;;;;;;;17.22;72.32617;962.4338;;;;
2019/09/05 10:08:06;;;;;;;8.8;3.6;;;;;;;17.26;72.19141;962.3672;;;;
2019/09/05 10:10:31;;;;;;;7.5;3.8;;;;;;;17.21;72.56836;962.3739;;;;
2019/09/05 10:12:56;;;;;;;6.9;3.9;;;;;;;17.32;72.65625;962.3289;;;;
2019/09/05 10:15:21;;;;;;;6.3;4;;;;;;;17.35;72.99023;962.3636;;;;
2019/09/05 10:17:46;;;;;;;7.4;3.8;;;;;;;17.5;73.21387;962.3674;;;;
2019/09/05 10:20:11;;;;;;;8.3;4.6;;;;;;;17.64;72.68652;962.365;;;;
2019/09/05 10:22:36;;;;;;;7.2;4.1;;;;;;;17.62;73.54883;962.3831;;;;
2019/09/05 10:25:01;;;;;;;7.6;3.9;;;;;;;17.75;73.47656;962.3903;;;;
2019/09/05 10:27:27;;;;;;;6.5;3.4;;;;;;;17.71;72.4873;962.3945;;;;
2019/09/05 10:29:52;;;;;;;7.5;3.1;;;;;;;17.64;72.11523;962.4012;;;;
2019/09/05 10:32:17;;;;;;;6.1;3;;;;;;;17.82;69.94434;962.3686;;;;
2019/09/05 10:34:43;;;;;;;4.8;2.7;;;;;;;17.93;70.13574;962.3583;;;;
2019/09/05 10:37:08;;;;;;;5.8;2.7;;;;;;;17.95;70.16309;962.3674;;;;
2019/09/05 10:39:33;;;;;;;3.8;2.4;;;;;;;17.97;68.45703;962.4156;;;;
2019/09/05 10:41:58;;;;;;;4.7;2.4;;;;;;;17.97;68.03711;962.4626;;;;
2019/09/05 10:44:24;;;;;;;4.6;2.9;;;;;;;17.92;67.86328;962.3574;;;;
2019/09/05 10:46:49;;;;;;;5.8;2.7;;;;;;;17.79;68.66406;962.4849;;;;
2019/09/05 10:49:15;;;;;;;4.8;2.4;;;;;;;17.74;68.76172;962.4769;;;;
2019/09/05 10:51:40;;;;;;;4.2;2.4;;;;;;;17.76;68.22461;962.5525;;;;
2019/09/05 10:54:05;;;;;;;4.9;2.5;;;;;;;17.73;68.80566;962.551;;;;
2019/09/05 10:56:30;;;;;;;4.6;2.6;;;;;;;17.72;68.40625;962.5486;;;;
2019/09/05 10:58:56;;;;;;;5.9;2.6;;;;;;;17.61;68.7041;962.5861;;;;
2019/09/05 11:01:21;;;;;;;4.3;2.4;;;;;;;17.54;68.78711;962.635;;;;
2019/09/05 11:03:46;;;;;;;6.4;2.8;;;;;;;17.31;69.33594;962.6453;;;;
2019/09/05 11:06:12;;;;;;;5.1;2.5;;;;;;;17.34;69.29297;962.6627;;;;
2019/09/05 11:08:37;;;;;;;4.5;2.4;;;;;;;17.26;69.03613;962.7104;;;;
2019/09/05 11:11:02;;;;;;;5.3;2.6;;;;;;;17.33;69.77246;962.7097;;;;
2019/09/05 11:13:27;;;;;;;4;2.3;;;;;;;17.3;69.9668;962.7006;;;;
2019/09/05 11:15:52;;;;;;;5.5;2.8;;;;;;;17.3;72.25586;962.7419;;;;
2019/09/05 11:18:18;;;;;;;6.5;3.2;;;;;;;17.31;70.69141;962.7508;;;;
2019/09/05 11:20:43;;;;;;;5.3;3;;;;;;;17.26;70.52051;962.8228;;;;
2019/09/05 11:23:08;;;;;;;8.3;4.5;;;;;;;17.28;70.48828;962.7773;;;;
2019/09/05 11:25:33;;;;;;;6.4;3.7;;;;;;;17.32;71.07813;962.8463;;;;
2019/09/05 11:27:59;;;;;;;6.3;2.9;;;;;;;17.13;69.71582;962.8295;;;;
2019/09/05 11:30:24;;;;;;;5.5;2.8;;;;;;;17.16;70.46777;962.8549;;;;
2019/09/05 11:32:49;;;;;;;5.2;2.6;;;;;;;17.19;70.37012;962.8433;;;;
2019/09/05 11:35:14;;;;;;;5.6;2.7;;;;;;;17.16;70.33984;962.8508;;;;
2019/09/05 11:37:39;;;;;;;4.9;2.7;;;;;;;17.2;71.01465;962.7817;;;;
2019/09/05 11:40:05;;;;;;;5.3;3.2;;;;;;;17.09;70.64551;962.8378;;;;
2019/09/05 11:42:30;;;;;;;6.6;2.6;;;;;;;17.1;71.00879;962.8245;;;;
2019/09/05 11:44:56;;;;;;;6.8;2.7;;;;;;;17.15;71.67188;962.818;;;;
2019/09/05 11:47:21;;;;;;;7.1;3.1;;;;;;;16.96;72.08496;962.8989;;;;
2019/09/05 11:49:47;;;;;;;5.6;2.6;;;;;;;17.02;72.53711;962.8929;;;;
2019/09/05 11:52:12;;;;;;;6.9;2.8;;;;;;;17.09;71.76855;962.9662;;;;
2019/09/05 11:54:37;;;;;;;4.7;2.7;;;;;;;17.21;70.90918;963.0073;;;;
2019/09/05 11:57:02;;;;;;;6.6;2.7;;;;;;;17.15;72.2793;963.0411;;;;
2019/09/05 11:59:28;;;;;;;4.7;2.6;;;;;;;17.04;71.88672;962.9819;;;;
2019/09/05 12:01:53;;;;;;;8.7;3.3;;;;;;;16.92;73.5957;962.9819;;;;
2019/09/05 12:04:18;;;;;;;5.8;3;;;;;;;16.65;74.25098;963.0408;;;;
2019/09/05 12:06:43;;;;;;;5.1;2.9;;;;;;;16.76;74.31543;963.0914;;;;
2019/09/05 12:09:09;;;;;;;6.8;3;;;;;;;16.73;73.69238;963.1068;;;;
2019/09/05 12:11:34;;;;;;;6.9;3;;;;;;;16.66;72.81641;963.1987;;;;
2019/09/05 12:14:00;;;;;;;6.8;3.2;;;;;;;16.64;73.08105;963.1931;;;;
2019/09/05 12:16:25;;;;;;;5.8;2.8;;;;;;;16.42;70.80664;963.1583;;;;
2019/09/05 12:18:50;;;;;;;5.1;2.2;;;;;;;16.26;68.68066;963.2639;;;;
2019/09/05 12:21:16;;;;;;;5.1;1.8;;;;;;;16;62.39453;963.3237;;;;
2019/09/05 12:23:41;;;;;;;2.9;1.4;;;;;;;15.93;58.84082;963.312;;;;
2019/09/05 12:26:06;;;;;;;3.7;1.5;;;;;;;15.88;60.17383;963.3602;;;;
2019/09/05 12:28:31;;;;;;;2.3;1.5;;;;;;;15.8;58.94043;963.383;;;;
2019/09/05 12:30:56;;;;;;;3.9;1.6;;;;;;;15.82;59.85156;963.3985;;;;
2019/09/05 12:33:21;;;;;;;3.9;1.8;;;;;;;15.74;59.78223;963.4494;;;;
2019/09/05 12:35:47;;;;;;;3.6;1.6;;;;;;;15.68;59.0293;963.4958;;;;
2019/09/05 12:38:12;;;;;;;4;1.7;;;;;;;15.55;58.19629;963.4822;;;;
2019/09/05 12:40:38;;;;;;;4.8;1.6;;;;;;;15.64;56.32227;963.5422;;;;
2019/09/05 12:43:03;;;;;;;2.9;1.6;;;;;;;15.59;59.21387;963.5377;;;;
2019/09/05 12:45:29;;;;;;;3.6;1.7;;;;;;;15.58;60.48242;963.5022;;;;
2019/09/05 12:47:54;;;;;;;4.3;1.7;;;;;;;15.77;63.03711;963.5439;;;;
2019/09/05 12:50:19;;;;;;;6.3;2.2;;;;;;;15.66;66.04785;963.5684;;;;
2019/09/05 12:52:44;;;;;;;5.5;2.4;;;;;;;15.8;67.25781;963.6156;;;;
2019/09/05 12:55:10;;;;;;;7.5;2.6;;;;;;;15.61;67.56641;963.5733;;;;
2019/09/05 12:57:35;;;;;;;6.4;2.6;;;;;;;15.41;68.72266;963.7;;;;
2019/09/05 13:00:01;;;;;;;6.8;3.4;;;;;;;15.53;72.91992;963.8224;;;;
2019/09/05 13:02:26;;;;;;;7.2;3.4;;;;;;;15.54;71.57129;963.8306;;;;
2019/09/05 13:04:52;;;;;;;5.9;2.8;;;;;;;15.47;72.12891;963.8959;;;;
2019/09/05 13:07:17;;;;;;;7.2;3.3;;;;;;;15.2;72.78418;963.9342;;;;
2019/09/05 13:09:42;;;;;;;7.7;3.5;;;;;;;15.17;75.47754;963.9372;;;;
2019/09/05 13:12:07;;;;;;;6.9;3.4;;;;;;;15.16;78.16113;963.9016;;;;
2019/09/05 13:14:33;;;;;;;8.6;3.9;;;;;;;15.04;78.39648;963.9187;;;;
2019/09/05 13:16:58;;;;;;;8.8;3.6;;;;;;;14.94;81.62207;963.9138;;;;
2019/09/05 13:19:23;;;;;;;6.3;3.5;;;;;;;15.03;78.98828;963.835;;;;
2019/09/05 13:21:48;;;;;;;6.5;3.7;;;;;;;15.01;81.47266;963.8519;;;;
2019/09/05 13:24:13;;;;;;;7.7;4.1;;;;;;;14.82;79.85742;963.7888;;;;
2019/09/05 13:26:39;;;;;;;12;4.7;;;;;;;14.73;83.3252;963.861;;;;
2019/09/05 13:29:04;;;;;;;6.8;3.9;;;;;;;14.72;81.74316;963.7551;;;;
2019/09/05 13:31:30;;;;;;;8;3.7;;;;;;;14.78;81.30176;963.7352;;;;
2019/09/05 13:33:55;;;;;;;10.9;4.6;;;;;;;14.71;82.68262;963.7408;;;;
2019/09/05 13:36:21;;;;;;;8.7;3.7;;;;;;;14.68;81.95703;963.7701;;;;
2019/09/05 13:38:46;;;;;;;7.7;3.6;;;;;;;14.87;83.41016;963.7631;;;;
2019/09/05 13:41:11;;;;;;;5.7;3.5;;;;;;;14.89;81.78809;963.7466;;;;
2019/09/05 13:43:36;;;;;;;7.7;4;;;;;;;14.84;81.84668;963.7267;;;;
2019/09/05 13:46:01;;;;;;;8;3.6;;;;;;;14.58;81.78613;963.6774;;;;
2019/09/05 13:48:27;;;;;;;6.7;3.4;;;;;;;14.65;82.3457;963.5745;;;;
2019/09/05 13:50:52;;;;;;;8.1;3.7;;;;;;;14.65;83.33301;963.6713;;;;
2019/09/05 13:53:17;;;;;;;7.6;3.5;;;;;;;14.57;85.43164;963.8008;;;;
2019/09/05 13:55:42;;;;;;;7.6;3.3;;;;;;;14.6;81.9541;963.7269;;;;
2019/09/05 13:58:07;;;;;;;8.9;5;;;;;;;14.61;82.75684;963.7047;;;;
2019/09/05 14:00:33;;;;;;;8;4.1;;;;;;;14.7;83.34277;963.7031;;;;
2019/09/05 14:02:58;;;;;;;7.4;3.2;;;;;;;14.7;81.61328;963.845;;;;
2019/09/05 14:05:23;;;;;;;5.7;3;;;;;;;14.64;80.18262;963.8395;;;;
2019/09/05 14:07:48;;;;;;;6.3;3.2;;;;;;;14.74;81.31641;963.8019;;;;
2019/09/05 14:10:13;;;;;;;6.6;3.5;;;;;;;14.6;81.19824;963.8433;;;;
2019/09/05 14:12:39;;;;;;;5.9;3.6;;;;;;;14.72;82.0918;963.7617;;;;
2019/09/05 14:15:04;;;;;;;6.4;3.1;;;;;;;14.67;81.89551;963.7012;;;;
2019/09/05 14:17:30;;;;;;;6.3;2.9;;;;;;;14.54;77.73926;963.7336;;;;
2019/09/05 14:19:55;;;;;;;7.4;3.5;;;;;;;14.55;84.05957;963.7098;;;;